Time;durP1;ratioP1;P1;durP2;ratioP2;P2;SDS_P1;SDS_P2;PMS_P1;PMS_P2;Temp;Humidity;BMP_temperature;BMP_pressure;BME280_temperature;BME280_humidity;BME280_pressure;Samples;Min_cycle;Max_cycle;Signal;HPM_P1;HPM_P2
2022/09/02 00:00:15;;;;;;;2.90;2.00;;;;;;;10.86;75.80;99135.82;219626;1280;24339;-76
2022/09/02 00:07:09;;;;;;;4.70;1.40;;;;;;;10.78;76.04;99129.29;219590;1279;25272;-75
2022/09/02 00:14:10;;;;;;;4.20;1.70;;;;;;;10.73;76.04;99127.66;219684;1276;22577;-76
2022/09/02 00:26:40;;;;;;;;;;;;;;;;;;;;;
2022/09/02 00:32:41;;;;;;;2.90;1.90;;;;;;;10.63;76.53;99124.73;205271;1276;1016405;-75
2022/09/02 00:39:23;;;;;;;3.90;2.00;;;;;;;10.61;76.79;99117.80;219663;1280;22562;-76
2022/09/02 00:46:01;;;;;;;4.70;2.40;;;;;;;10.57;76.79;99107.21;219347;1280;25269;-76
2022/09/02 00:52:28;;;;;;;3.80;2.00;;;;;;;10.57;77.12;99108.61;219457;1279;22643;-75
2022/09/02 00:59:02;;;;;;;;;;;;;;;;;;;;;
2022/09/02 01:05:21;;;;;;;4.40;2.20;;;;;;;10.47;76.89;99099.25;217401;1282;1003434;-76
2022/09/02 01:30:33;;;;;;;3.00;1.70;;;;;;;10.30;77.73;99096.61;219854;1278;22779;-76
2022/09/02 01:37:16;;;;;;;4.30;1.60;;;;;;;10.29;77.65;99101.07;218891;1277;24991;-75
2022/09/02 01:43:42;;;;;;;3.40;1.70;;;;;;;10.23;77.66;99095.69;219569;1279;25377;-75
2022/09/02 01:50:22;;;;;;;5.40;2.00;;;;;;;10.15;78.10;99102.70;215513;1279;5340530;-76
2022/09/02 01:57:23;;;;;;;;;;;;;;;;;;;;;
2022/09/02 02:04:02;;;;;;;3.70;1.80;;;;;;;9.93;78.55;99093.52;218963;1279;24442;-76
2022/09/02 02:10:47;;;;;;;;;;;;;;;;;;;;;
2022/09/02 02:17:34;;;;;;;5.40;2.00;;;;;;;9.72;78.89;99085.65;219716;1277;22738;-75
2022/09/02 02:24:17;;;;;;;;;;;;;;;;;;;;;
2022/09/02 02:31:04;;;;;;;3.50;2.00;;;;;;;9.52;79.41;99082.84;219530;1278;24344;-76
2022/09/02 02:37:54;;;;;;;4.00;2.00;;;;;;;9.43;79.36;99080.80;219453;1279;24281;-76
2022/09/02 02:44:09;;;;;;;3.00;1.90;;;;;;;9.39;79.92;99083.37;219810;1277;22642;-76
2022/09/02 02:50:56;;;;;;;3.40;2.00;;;;;;;9.33;79.99;99092.00;219812;1277;22537;-76
2022/09/02 03:04:18;;;;;;;3.70;2.10;;;;;;;9.17;80.34;99076.22;219785;1278;23994;-75
2022/09/02 03:11:05;;;;;;;3.00;2.20;;;;;;;9.08;80.42;99069.76;219576;1279;25409;-75
2022/09/02 03:17:31;;;;;;;3.90;2.50;;;;;;;9.00;80.65;99066.04;219395;1277;26627;-76
2022/09/02 03:24:04;;;;;;;;;;;;;;;;;;;;;
2022/09/02 03:29:20;;;;;;;4.70;3.10;;;;;;;8.86;81.23;99073.80;219203;1282;22741;-76
2022/09/02 03:35:36;;;;;;;5.80;3.20;;;;;;;8.82;81.46;99076.66;219026;1281;24058;-76
2022/09/02 03:41:31;;;;;;;4.20;3.00;;;;;;;8.76;81.78;99081.35;218701;1281;25407;-77
2022/09/02 03:47:55;;;;;;;5.90;2.90;;;;;;;8.72;81.64;99085.58;219455;1279;23026;-76
2022/09/02 03:54:05;;;;;;;3.80;2.90;;;;;;;8.66;82.05;99087.13;219777;1277;22697;-76
2022/09/02 04:00:14;;;;;;;4.40;3.00;;;;;;;8.63;82.12;99088.95;219391;1278;22538;-77
2022/09/02 04:07:04;;;;;;;;;;;;;;;;;;;;;
2022/09/02 04:13:36;;;;;;;7.70;3.10;;;;;;;8.62;82.73;99085.21;219636;1277;22547;-76
2022/09/02 04:19:08;;;;;;;4.40;2.80;;;;;;;8.64;82.92;99084.25;219665;1278;25312;-77
2022/09/02 04:24:20;;;;;;;4.60;2.60;;;;;;;8.68;83.07;99080.61;219481;1277;25935;-76
2022/09/02 04:30:43;;;;;;;5.00;2.50;;;;;;;8.74;83.24;99083.01;219134;1280;22880;-75
2022/09/02 04:36:31;;;;;;;;;;;;;;;;;;;;;
2022/09/02 04:42:46;;;;;;;3.40;2.10;;;;;;;8.94;83.56;99079.30;219342;1281;24364;-76
2022/09/02 04:55:24;;;;;;;;;;;;;;;;;;;;;
2022/09/02 05:01:57;;;;;;;3.90;2.30;;;;;;;9.27;83.81;99082.98;219867;1278;22582;-74
2022/09/02 05:15:18;;;;;;;4.20;2.50;;;;;;;9.61;84.21;99083.29;219720;1277;22543;-76
2022/09/02 05:21:05;;;;;;;4.70;2.80;;;;;;;9.80;84.48;99077.42;219553;1278;25434;-76
2022/09/02 05:26:39;;;;;;;5.30;3.00;;;;;;;10.00;84.41;99073.83;219915;1277;22667;-77
2022/09/02 05:39:36;;;;;;;8.20;3.80;;;;;;;10.44;84.11;99074.15;219593;1277;22619;-76
2022/09/02 05:46:27;;;;;;;5.00;3.60;;;;;;;10.72;83.84;99077.30;220216;1277;24149;-75
2022/09/02 05:52:53;;;;;;;5.20;3.80;;;;;;;11.01;83.16;99077.02;220323;1277;22549;-74
2022/09/02 05:58:57;;;;;;;;;;;;;;;;;;;;;
2022/09/02 06:04:08;;;;;;;;;;;;;;;11.38;82.46;99082.11;220780;1277;25232;-75
2022/09/02 06:09:49;;;;;;;6.30;4.10;;;;;;;11.56;82.36;99084.58;220289;1277;22626;-76
2022/09/02 06:15:05;;;;;;;8.70;4.10;;;;;;;11.78;81.84;99088.07;220379;1277;22654;-74
2022/09/02 06:20:31;;;;;;;7.10;3.80;;;;;;;11.95;81.60;99090.91;220103;1277;25417;-74
2022/09/02 06:25:53;;;;;;;5.40;3.40;;;;;;;12.18;81.35;99088.14;220231;1276;22574;-75
2022/09/02 06:36:47;;;;;;;;;;;;;;;;;;;;;
2022/09/02 06:42:32;;;;;;;;;;;;;;;;;;;;;
2022/09/02 06:48:29;;;;;;;3.60;2.70;;;;;;;13.18;78.87;99100.48;220335;1277;22550;-75
2022/09/02 06:54:18;;;;;;;4.70;2.40;;;;;;;13.35;78.49;99100.02;220306;1276;25021;-75
2022/09/02 06:59:53;;;;;;;5.00;2.90;;;;;;;13.54;78.02;99095.93;220355;1277;22560;-74
2022/09/02 07:05:37;;;;;;;4.10;2.20;;;;;;;13.70;77.64;99094.81;220332;1277;22554;-74
2022/09/02 07:11:15;;;;;;;5.70;2.50;;;;;;;13.89;77.33;99098.45;220553;1276;22586;-75
2022/09/02 07:16:55;;;;;;;3.30;1.90;;;;;;;14.16;77.38;99102.19;220318;1277;23379;-75
2022/09/02 07:22:22;;;;;;;3.70;1.50;;;;;;;14.46;77.01;99103.92;220116;1277;22588;-74
2022/09/02 07:27:58;;;;;;;2.50;1.60;;;;;;;14.74;76.38;99104.16;220381;1277;23978;-74
2022/09/02 07:33:38;;;;;;;10.00;1.70;;;;;;;14.99;75.97;99104.34;214335;1276;1016520;-75
2022/09/02 07:39:00;;;;;;;3.60;1.40;;;;;;;15.24;74.93;99106.58;212996;1277;1015576;-75
2022/09/02 07:44:54;;;;;;;1.50;1.20;;;;;;;15.53;74.23;99109.89;220266;1274;25421;-75
2022/09/02 07:51:10;;;;;;;1.90;1.20;;;;;;;15.84;73.61;99111.44;219971;1277;22569;-74
2022/09/02 07:56:18;;;;;;;2.10;1.20;;;;;;;16.12;72.82;99115.38;220078;1278;22560;-75
2022/09/02 08:01:43;;;;;;;3.90;1.50;;;;;;;16.31;72.09;99112.95;164456;1278;1016664;-73
2022/09/02 08:06:50;;;;;;;1.80;1.10;;;;;;;16.47;71.15;99112.17;109816;1277;1017224;-74
2022/09/02 08:12:30;;;;;;;4.70;1.20;;;;;;;16.65;70.83;99107.52;218603;1277;1016183;-75
2022/09/02 08:17:35;;;;;;;5.80;1.00;;;;;;;16.90;69.89;99111.78;219984;1277;26393;-76
2022/09/02 08:23:13;;;;;;;2.20;0.80;;;;;;;17.14;68.67;99107.69;219770;1278;22812;-73
2022/09/02 08:29:09;;;;;;;2.30;0.80;;;;;;;17.33;66.89;99100.92;219864;1280;24107;-75
2022/09/02 08:35:01;;;;;;;2.30;0.80;;;;;;;17.55;66.45;99098.34;219515;1279;22565;-73
2022/09/02 08:40:46;;;;;;;0.50;0.50;;;;;;;17.84;66.12;99099.90;219993;1278;25239;-80
2022/09/02 08:46:31;;;;;;;3.00;0.60;;;;;;;18.18;63.92;99100.91;219854;1279;24269;-74
2022/09/02 08:51:50;;;;;;;6.50;0.90;;;;;;;18.59;62.97;99102.67;219924;1277;25339;-75
2022/09/02 08:57:56;;;;;;;1.20;0.60;;;;;;;18.96;61.38;99097.30;219847;1275;23021;-74
2022/09/02 09:03:24;;;;;;;4.30;1.00;;;;;;;19.29;60.55;99085.41;220169;1277;24297;-74
2022/09/02 09:09:19;;;;;;;2.20;0.60;;;;;;;19.67;58.75;99080.02;220044;1277;22588;-74
2022/09/02 09:15:20;;;;;;;1.20;0.50;;;;;;;20.01;57.74;99076.38;220358;1277;22691;-74
2022/09/02 09:20:29;;;;;;;0.40;0.30;;;;;;;20.16;54.55;99073.38;219951;1277;26347;-73
2022/09/02 09:26:29;;;;;;;0.70;0.50;;;;;;;20.03;54.01;99068.02;220036;1276;22607;-74
2022/09/02 09:32:00;;;;;;;1.70;0.70;;;;;;;20.21;53.70;99061.71;220072;1276;23983;-73
2022/09/02 09:37:27;;;;;;;0.60;0.60;;;;;;;20.51;53.29;99063.23;148956;1276;1005920;-72
2022/09/02 09:42:38;;;;;;;1.50;0.50;;;;;;;20.65;52.80;99065.79;109890;1277;1018176;-73
2022/09/02 09:48:30;;;;;;;1.00;0.50;;;;;;;20.68;50.43;99061.20;109846;1277;1018771;-73
2022/09/02 09:53:46;;;;;;;1.40;0.60;;;;;;;20.58;49.16;99063.31;109762;1276;1017595;-72
2022/09/02 09:58:56;;;;;;;1.30;0.40;;;;;;;20.37;48.81;99061.05;109832;1277;1017038;-73
2022/09/02 10:04:09;;;;;;;2.80;0.50;;;;;;;20.27;48.99;99058.86;109758;1276;1016658;-73
2022/09/02 10:09:40;;;;;;;2.10;0.50;;;;;;;20.19;49.56;99057.63;215619;1276;1016211;-74
2022/09/02 10:15:20;;;;;;;1.70;1.00;;;;;;;20.22;50.51;99052.10;220252;1276;24269;-73
2022/09/02 10:21:42;;;;;;;3.10;0.80;;;;;;;20.18;50.68;99050.50;220316;1276;22597;-73
2022/09/02 10:27:10;;;;;;;1.60;0.60;;;;;;;19.94;50.54;99043.85;219620;1281;25304;-74
2022/09/02 10:32:50;;;;;;;0.60;0.50;;;;;;;20.03;50.29;99043.16;220268;1276;22551;-76
2022/09/02 10:38:21;;;;;;;1.60;0.60;;;;;;;20.16;50.35;99037.70;220030;1277;23359;-74
2022/09/02 10:44:05;;;;;;;1.80;0.40;;;;;;;20.48;50.48;99036.88;220288;1277;22600;-74
2022/09/02 10:49:48;;;;;;;0.90;0.70;;;;;;;20.84;49.42;99036.11;219747;1277;22539;-75
2022/09/02 10:55:20;;;;;;;2.90;0.70;;;;;;;21.07;48.52;99037.67;219989;1277;22642;-75
2022/09/02 11:00:43;;;;;;;1.50;0.50;;;;;;;21.20;48.38;99030.60;184438;1276;1015916;-75
2022/09/02 11:06:48;;;;;;;1.40;0.70;;;;;;;21.39;47.70;99022.60;109849;1279;1018439;-75
2022/09/02 11:12:21;;;;;;;1.00;0.50;;;;;;;21.65;47.75;99018.48;109706;1276;1017322;-74
2022/09/02 11:17:49;;;;;;;0.60;0.50;;;;;;;21.99;47.27;99023.29;109817;1275;1016600;-74
2022/09/02 11:22:55;;;;;;;0.70;0.60;;;;;;;22.19;46.01;99022.67;109819;1277;1018728;-74
2022/09/02 11:28:38;;;;;;;2.30;0.80;;;;;;;22.21;44.54;99023.89;109714;1277;1016263;-75
2022/09/02 11:34:24;;;;;;;1.50;0.60;;;;;;;21.66;43.50;99019.11;110004;1276;1020311;-75
2022/09/02 11:39:49;;;;;;;2.00;0.80;;;;;;;21.02;43.85;99025.05;109777;1276;1016359;-73
2022/09/02 11:46:03;;;;;;;0.50;0.40;;;;;;;20.62;43.83;99022.40;110000;1276;1016669;-74
2022/09/02 11:52:16;;;;;;;1.10;0.50;;;;;;;20.51;44.27;99028.78;109820;1276;1017640;-74
2022/09/02 11:57:25;;;;;;;1.80;0.60;;;;;;;20.47;44.80;99026.41;109985;1276;1016642;-75
2022/09/02 12:02:30;;;;;;;0.90;0.60;;;;;;;20.43;44.77;99025.17;109848;1276;1016599;-74
2022/09/02 12:07:48;;;;;;;3.90;0.80;;;;;;;20.41;44.64;99021.13;109736;1276;1016674;-74
2022/09/02 12:13:47;;;;;;;4.10;0.50;;;;;;;20.35;44.81;99018.25;109866;1277;1016385;-74
2022/09/02 12:19:07;;;;;;;2.40;0.50;;;;;;;20.17;44.44;99007.83;109773;1276;1016712;-74
2022/09/02 12:24:20;;;;;;;0.30;0.30;;;;;;;20.12;44.55;99000.54;109899;1276;1016505;-74
2022/09/02 12:29:35;;;;;;;0.80;0.50;;;;;;;20.06;43.78;98994.24;109768;1276;1016218;-75
2022/09/02 12:35:07;;;;;;;0.80;0.60;;;;;;;20.04;44.00;98991.61;109643;1276;1016571;-75
2022/09/02 12:40:32;;;;;;;3.10;0.50;;;;;;;20.13;44.33;98980.91;109725;1277;1016698;-75
2022/09/02 12:45:42;;;;;;;1.30;0.30;;;;;;;20.65;44.44;98974.41;109759;1276;1018404;-75
2022/09/02 12:50:57;;;;;;;4.10;0.50;;;;;;;21.32;43.04;98968.83;109742;1276;1016678;-73
2022/09/02 12:56:18;;;;;;;0.50;0.40;;;;;;;21.82;42.19;98965.45;109745;1276;1016460;-74
2022/09/02 13:02:23;;;;;;;1.80;0.80;;;;;;;22.16;41.32;98962.06;109772;1276;1016732;-74
2022/09/02 13:07:55;;;;;;;1.60;0.50;;;;;;;22.33;41.41;98960.11;110090;1276;1018608;-76
2022/09/02 13:13:25;;;;;;;2.30;0.60;;;;;;;22.07;40.60;98960.23;109973;1277;1016537;-74
2022/09/02 13:18:58;;;;;;;3.00;0.90;;;;;;;21.77;40.61;98956.32;109887;1277;1016509;-74
2022/09/02 13:24:21;;;;;;;0.80;0.60;;;;;;;21.41;40.61;98955.47;109732;1276;1017539;-75
2022/09/02 13:30:24;;;;;;;;;;;;;;;;;;;;;
2022/09/02 13:35:30;;;;;;;1.70;0.90;;;;;;;21.40;41.30;98951.18;218212;1285;25339;-75
2022/09/02 13:40:45;;;;;;;1.30;0.80;;;;;;;21.55;41.22;98947.63;210699;1283;10359819;-73
2022/09/02 13:45:49;;;;;;;3.20;0.70;;;;;;;21.50;40.81;98952.23;219698;1277;23180;-74
2022/09/02 13:51:28;;;;;;;1.80;0.70;;;;;;;21.42;40.55;98954.02;219910;1277;23354;-74
2022/09/02 13:56:39;;;;;;;0.80;0.40;;;;;;;21.23;40.25;98946.54;219900;1277;24530;-74
2022/09/02 14:01:44;;;;;;;1.00;0.70;;;;;;;21.12;40.31;98941.47;219797;1277;25332;-74
2022/09/02 14:06:56;;;;;;;1.90;0.50;;;;;;;21.07;40.30;98932.85;219444;1277;22542;-75
2022/09/02 14:12:07;;;;;;;0.70;0.60;;;;;;;20.95;40.44;98934.06;219493;1277;23720;-74
2022/09/02 14:18:27;;;;;;;0.80;0.50;;;;;;;20.80;40.42;98938.86;219312;1277;24250;-75
2022/09/02 14:23:48;;;;;;;1.90;0.70;;;;;;;20.90;40.93;98929.21;219250;1277;22606;-75
2022/09/02 14:29:22;;;;;;;2.10;0.50;;;;;;;21.03;40.30;98929.83;219433;1277;25284;-73
2022/09/02 14:35:06;;;;;;;0.70;0.40;;;;;;;21.37;40.20;98928.85;220460;1271;22561;-74
2022/09/02 14:40:41;;;;;;;0.80;0.50;;;;;;;21.41;39.56;98925.66;220351;1273;22532;-74
2022/09/02 14:46:30;;;;;;;1.40;0.80;;;;;;;21.20;39.54;98921.33;220665;1273;22738;-74
2022/09/02 14:51:49;;;;;;;5.00;0.70;;;;;;;20.99;39.75;98916.67;220311;1273;22669;-75
2022/09/02 14:57:23;;;;;;;1.10;0.60;;;;;;;21.13;39.94;98918.91;220540;1273;23201;-73
2022/09/02 15:02:34;;;;;;;1.00;0.50;;;;;;;21.21;40.14;98917.07;220513;1273;22722;-74
2022/09/02 15:07:37;;;;;;;2.70;0.90;;;;;;;21.10;40.28;98926.08;220263;1273;26370;-75
2022/09/02 15:12:51;;;;;;;0.60;0.40;;;;;;;20.85;40.16;98920.48;220415;1273;25411;-77
2022/09/02 15:18:02;;;;;;;2.80;0.90;;;;;;;20.65;40.38;98921.90;220485;1273;22592;-73
2022/09/02 15:23:14;;;;;;;2.20;0.70;;;;;;;20.49;40.56;98921.14;220317;1273;26432;-74
2022/09/02 15:28:28;;;;;;;1.70;0.60;;;;;;;20.35;40.27;98915.73;220544;1273;24215;-73
2022/09/02 15:33:31;;;;;;;1.80;0.60;;;;;;;20.27;40.68;98908.25;220235;1273;22604;-74
2022/09/02 15:38:34;;;;;;;1.30;0.40;;;;;;;20.35;40.96;98908.05;218957;1273;1003553;-74
2022/09/02 15:43:37;;;;;;;4.50;0.70;;;;;;;20.40;41.07;98908.88;219075;1273;1002975;-74
2022/09/02 15:48:52;;;;;;;0.90;0.70;;;;;;;20.24;40.96;98915.00;220429;1273;23821;-75
2022/09/02 15:54:31;;;;;;;1.60;0.50;;;;;;;20.02;41.45;98911.61;220409;1273;22557;-74
2022/09/02 16:00:26;;;;;;;3.80;0.90;;;;;;;19.81;41.92;98907.48;220183;1273;22563;-74
2022/09/02 16:05:45;;;;;;;1.10;0.70;;;;;;;19.68;42.25;98910.21;220057;1273;24231;-75
2022/09/02 16:11:18;;;;;;;1.40;1.20;;;;;;;19.65;42.51;98915.17;220020;1273;22665;-75
2022/09/02 16:16:41;;;;;;;2.50;0.80;;;;;;;19.74;42.38;98911.55;207004;1273;1005598;-74
2022/09/02 16:22:17;;;;;;;0.40;0.30;;;;;;;19.75;42.57;98910.63;192240;1273;1015909;-75
2022/09/02 16:27:50;;;;;;;0.70;0.60;;;;;;;19.67;42.59;98909.02;199333;1273;1005607;-73
2022/09/02 16:33:25;;;;;;;1.30;0.70;;;;;;;19.51;43.01;98907.41;191608;1273;1016704;-77
2022/09/02 16:38:38;;;;;;;2.60;0.70;;;;;;;19.27;43.53;98903.63;220536;1273;24522;-73
2022/09/02 16:43:46;;;;;;;1.80;0.80;;;;;;;19.06;44.00;98899.74;220170;1273;24387;-74
2022/09/02 16:49:38;;;;;;;3.00;0.90;;;;;;;18.89;44.54;98904.34;220277;1273;22612;-74
2022/09/02 16:55:25;;;;;;;5.90;0.80;;;;;;;18.73;45.19;98895.77;220618;1273;22538;-75
2022/09/02 17:01:06;;;;;;;2.10;0.90;;;;;;;18.60;45.89;98901.89;220367;1273;22724;-75
2022/09/02 17:13:40;;;;;;;;;;;;;;;;;;;;;
2022/09/02 17:19:29;;;;;;;1.50;1.10;;;;;;;17.87;47.15;98894.16;220329;1273;26603;-74
2022/09/02 17:25:09;;;;;;;3.50;0.90;;;;;;;17.59;47.52;98894.11;220419;1273;25433;-73
2022/09/02 17:31:04;;;;;;;1.70;1.00;;;;;;;17.36;48.15;98891.49;220554;1271;22752;-74
2022/09/02 17:37:29;;;;;;;6.00;1.50;;;;;;;17.12;48.68;98894.63;220424;1273;22563;-74
2022/09/02 17:43:14;;;;;;;2.60;1.40;;;;;;;16.88;49.31;98894.10;220544;1273;23822;-74
2022/09/02 17:49:19;;;;;;;3.30;2.20;;;;;;;16.63;49.95;98895.71;220473;1273;24337;-74
2022/09/02 17:55:22;;;;;;;7.30;2.00;;;;;;;16.37;50.52;98896.87;220629;1273;22687;-73
2022/09/02 18:01:01;;;;;;;4.30;1.60;;;;;;;16.11;51.26;98903.71;220750;1273;24329;-74
2022/09/02 18:06:29;;;;;;;8.30;2.20;;;;;;;15.89;51.74;98905.52;220448;1273;22598;-73
2022/09/02 18:11:32;;;;;;;5.60;1.70;;;;;;;15.69;52.25;98909.34;220331;1273;25256;-76
2022/09/02 18:17:39;;;;;;;7.60;1.80;;;;;;;15.55;52.84;98906.48;220749;1273;25257;-74
2022/09/02 18:24:08;;;;;;;;;;;;;;;;;;;;;
2022/09/02 18:30:16;;;;;;;4.80;2.00;;;;;;;15.22;54.96;98912.89;220667;1273;22594;-73
2022/09/02 18:42:41;;;;;;;6.50;3.10;;;;;;;14.98;56.07;98919.04;219838;1273;22635;-75
2022/09/02 18:48:47;;;;;;;5.80;3.30;;;;;;;14.85;56.52;98921.02;220405;1273;24255;-76
2022/09/02 18:55:29;;;;;;;;;;;;;;;;;;;;;
2022/09/02 19:00:54;;;;;;;9.80;3.00;;;;;;;14.63;57.51;98911.36;220580;1271;22674;-74
2022/09/02 19:06:39;;;;;;;6.80;3.20;;;;;;;14.54;57.89;98908.41;220359;1273;23846;-74
2022/09/02 19:12:35;;;;;;;8.30;3.60;;;;;;;14.49;58.02;98917.92;220471;1274;22640;-73
2022/09/02 19:18:23;;;;;;;6.70;2.90;;;;;;;14.41;58.36;98913.45;220756;1274;22654;-74
2022/09/02 19:24:21;;;;;;;4.70;2.40;;;;;;;14.39;58.50;98916.80;220738;1272;22534;-75
2022/09/02 19:29:48;;;;;;;;;;;;;;;;;;;;;
2022/09/02 19:35:35;;;;;;;8.50;3.90;;;;;;;14.47;59.28;98911.83;220591;1273;22608;-75
2022/09/02 19:40:48;;;;;;;6.80;3.30;;;;;;;14.40;59.48;98910.84;220460;1273;25332;-73
2022/09/02 19:46:14;;;;;;;12.50;4.10;;;;;;;14.33;59.92;98915.37;220349;1274;22584;-73
2022/09/02 19:52:07;;;;;;;6.60;3.30;;;;;;;14.28;60.25;98917.20;220369;1272;22534;-73
2022/09/02 19:57:41;;;;;;;9.60;3.40;;;;;;;14.21;60.53;98920.60;220742;1273;25321;-74
2022/09/02 20:03:13;;;;;;;8.90;3.90;;;;;;;14.11;60.78;98921.00;220559;1273;25565;-75
2022/09/02 20:08:18;;;;;;;7.20;3.20;;;;;;;14.04;61.11;98917.62;220486;1273;22705;-73
2022/09/02 20:13:59;;;;;;;7.00;3.30;;;;;;;13.96;61.14;98918.14;220397;1273;22570;-74
2022/09/02 20:20:16;;;;;;;6.60;3.90;;;;;;;13.85;61.54;98912.42;220515;1273;26498;-74
2022/09/02 20:26:40;;;;;;;;;;;;;;;;;;;;;
2022/09/02 20:32:49;;;;;;;7.00;3.20;;;;;;;13.61;62.06;98912.28;220400;1273;23045;-73
2022/09/02 20:39:26;;;;;;;8.50;3.30;;;;;;;13.56;62.42;98914.14;220435;1273;23060;-74
2022/09/02 20:46:05;;;;;;;;;;;;;;;;;;;;;
2022/09/02 20:52:09;;;;;;;;;;;;;;;;;;;;;
2022/09/02 20:58:14;;;;;;;9.60;4.10;;;;;;;13.16;63.18;98918.33;220793;1273;23863;-75
2022/09/02 21:04:42;;;;;;;7.80;3.80;;;;;;;13.03;63.66;98918.32;220569;1273;25256;-73
2022/09/02 21:10:55;;;;;;;;;;;;;;;;;;;;;
2022/09/02 21:18:11;;;;;;;4.90;3.20;;;;;;;12.88;64.23;98917.74;219741;1274;1002382;-73
2022/09/02 21:31:46;;;;;;;6.80;2.70;;;;;;;12.74;64.70;98916.52;220290;1274;22548;-74
2022/09/02 21:37:30;;;;;;;5.20;2.30;;;;;;;12.65;64.71;98908.52;220523;1273;22547;-74
2022/09/02 21:44:30;;;;;;;6.20;2.20;;;;;;;12.57;64.93;98906.42;220386;1273;26360;-73
2022/09/02 21:50:59;;;;;;;;;;;;;;;;;;;;;
2022/09/02 21:57:44;;;;;;;4.90;2.10;;;;;;;12.41;65.21;98908.33;220574;1273;22525;-75
2022/09/02 22:04:27;;;;;;;4.00;2.20;;;;;;;12.30;65.35;98913.52;220416;1273;22528;-73
2022/09/02 22:10:41;;;;;;;10.80;2.30;;;;;;;12.21;65.38;98921.48;220040;1274;22610;-74
2022/09/02 22:16:49;;;;;;;5.60;2.90;;;;;;;12.08;65.73;98920.95;220597;1274;25370;-75
2022/09/02 22:23:35;;;;;;;3.50;2.20;;;;;;;11.94;66.09;98924.16;220009;1273;25250;-73
2022/09/02 22:30:35;;;;;;;4.90;2.60;;;;;;;11.75;66.37;98919.63;220298;1273;22546;-74
2022/09/02 22:37:08;;;;;;;3.80;2.30;;;;;;;11.56;66.81;98914.31;220372;1274;24261;-74
2022/09/02 22:43:05;;;;;;;6.50;2.90;;;;;;;11.39;66.94;98914.23;220348;1273;22559;-74
2022/09/02 22:55:46;;;;;;;5.60;2.30;;;;;;;11.08;67.58;98907.14;220632;1274;24290;-74
2022/09/02 23:02:09;;;;;;;3.80;2.30;;;;;;;10.98;67.94;98903.15;220603;1274;25251;-73
2022/09/02 23:07:37;;;;;;;6.50;2.50;;;;;;;10.92;68.18;98898.72;220702;1274;22567;-74
2022/09/02 23:27:21;;;;;;;6.50;2.30;;;;;;;10.76;68.75;98899.77;220478;1273;22569;-74
2022/09/02 23:47:24;;;;;;;4.10;2.70;;;;;;;10.44;69.43;98892.90;220271;1273;22532;-75
2022/09/02 23:54:32;;;;;;;4.90;2.50;;;;;;;10.28;69.74;98894.79;220162;1274;22526;-73
